Time;durP1;ratioP1;P1;durP2;ratioP2;P2;SDS_P1;SDS_P2;PMS_P1;PMS_P2;Temp;Humidity;BMP_temperature;BMP_pressure;BME280_temperature;BME280_humidity;BME280_pressure;Samples;Min_cycle;Max_cycle;Signal;HPM_P1;HPM_P2
2021/07/17 00:01:16;;;;;;;0.32;0.10;;;19.70;60.80;;;;;;4947967;28;20502;-84
2021/07/17 00:03:42;;;;;;;7.43;0.30;;;19.70;60.90;;;;;;4931966;29;20036;-84
2021/07/17 00:06:08;;;;;;;1.75;0.00;;;19.60;60.90;;;;;;4916119;29;20031;-85
2021/07/17 00:08:34;;;;;;;1.85;0.20;;;19.60;61.00;;;;;;4916942;29;20051;-85
2021/07/17 00:11:00;;;;;;;0.32;0.30;;;19.60;61.10;;;;;;4916989;29;20091;-86
2021/07/17 00:13:26;;;;;;;0.88;0.00;;;19.60;61.10;;;;;;4912979;29;20039;-84
2021/07/17 00:15:52;;;;;;;3.65;0.40;;;19.60;61.30;;;;;;4916706;28;20033;-86
2021/07/17 00:18:19;;;;;;;0.63;0.17;;;19.50;61.40;;;;;;4917606;28;20083;-85
2021/07/17 00:20:46;;;;;;;0.40;0.17;;;19.50;61.60;;;;;;4916840;29;20028;-84
2021/07/17 00:23:12;;;;;;;0.10;0.00;;;19.50;61.80;;;;;;4931794;29;20035;-84
2021/07/17 00:25:39;;;;;;;3.70;0.35;;;19.40;61.70;;;;;;4914271;29;20037;-85
2021/07/17 00:28:06;;;;;;;0.50;0.30;;;19.40;61.70;;;;;;4963460;28;20036;-84
2021/07/17 00:30:33;;;;;;;0.40;0.20;;;19.30;61.90;;;;;;4946867;28;20047;-84
2021/07/17 00:32:59;;;;;;;2.38;0.03;;;19.30;62.00;;;;;;4931365;29;20024;-84
2021/07/17 00:35:25;;;;;;;0.13;0.00;;;19.30;62.00;;;;;;4916921;29;20028;-85
2021/07/17 00:37:51;;;;;;;5.50;0.30;;;19.30;62.10;;;;;;4916584;29;20027;-84
2021/07/17 00:40:20;;;;;;;0.20;0.00;;;19.30;62.10;;;;;;4917301;29;20475;-84
2021/07/17 00:42:48;;;;;;;1.05;0.10;;;19.30;62.20;;;;;;4914921;29;20032;-84
2021/07/17 00:45:14;;;;;;;1.55;0.30;;;19.20;62.20;;;;;;4916045;28;20059;-85
2021/07/17 00:47:41;;;;;;;0.20;0.15;;;19.20;62.30;;;;;;4929722;29;20024;-85
2021/07/17 00:50:08;;;;;;;0.55;0.17;;;19.10;62.30;;;;;;4917814;28;20044;-82
2021/07/17 00:52:35;;;;;;;0.93;0.32;;;19.20;62.40;;;;;;4913167;29;20037;-83
2021/07/17 00:55:02;;;;;;;0.30;0.20;;;19.20;62.50;;;;;;4916805;29;20032;-85
2021/07/17 00:57:31;;;;;;;1.88;0.03;;;19.10;62.40;;;;;;4916008;29;20032;-85
2021/07/17 00:59:58;;;;;;;0.43;0.00;;;19.10;62.40;;;;;;4931086;29;20036;-84
2021/07/17 01:02:24;;;;;;;0.52;0.10;;;19.10;62.40;;;;;;4927496;28;20021;-87
2021/07/17 01:04:51;;;;;;;0.45;0.32;;;19.20;62.50;;;;;;4929823;29;20043;-85
2021/07/17 01:07:18;;;;;;;0.28;0.10;;;19.10;62.50;;;;;;4916553;29;20048;-86
2021/07/17 01:09:44;;;;;;;0.00;0.00;;;19.10;62.60;;;;;;4914627;29;20036;-85
2021/07/17 01:12:10;;;;;;;0.15;0.10;;;19.10;62.70;;;;;;4916638;29;20495;-84
2021/07/17 01:14:39;;;;;;;0.20;0.10;;;19.10;62.70;;;;;;4912643;29;20110;-85
2021/07/17 01:17:05;;;;;;;0.30;0.10;;;19.10;62.80;;;;;;4930550;28;20487;-84
2021/07/17 01:19:31;;;;;;;0.25;0.20;;;19.00;62.80;;;;;;4946646;28;20059;-83
2021/07/17 01:21:57;;;;;;;0.25;0.20;;;19.00;62.90;;;;;;4946800;29;20475;-85
2021/07/17 01:24:24;;;;;;;0.20;0.00;;;19.00;62.90;;;;;;4915591;29;20040;-84
2021/07/17 01:26:51;;;;;;;1.17;0.10;;;18.90;62.90;;;;;;4916543;28;20048;-83
2021/07/17 01:29:17;;;;;;;0.50;0.08;;;18.90;63.00;;;;;;4915921;29;20043;-82
2021/07/17 01:31:44;;;;;;;0.93;0.32;;;19.00;63.00;;;;;;4915277;28;20040;-84
2021/07/17 01:34:10;;;;;;;0.25;0.03;;;18.90;63.00;;;;;;4962891;28;20058;-84
2021/07/17 01:36:37;;;;;;;0.65;0.20;;;18.90;63.00;;;;;;4946364;29;20048;-84
2021/07/17 01:39:04;;;;;;;0.93;0.50;;;18.90;63.10;;;;;;4915453;29;20035;-84
2021/07/17 01:41:30;;;;;;;0.10;0.00;;;18.90;63.90;;;;;;4927372;29;20033;-84
2021/07/17 01:43:57;;;;;;;0.50;0.30;;;18.80;63.20;;;;;;4930650;29;20495;-84
2021/07/17 01:46:24;;;;;;;0.20;0.00;;;18.80;63.20;;;;;;4916598;28;20032;-84
2021/07/17 01:48:54;;;;;;;1.27;0.20;;;18.80;63.30;;;;;;4930476;29;20098;-83
2021/07/17 01:51:21;;;;;;;0.70;0.20;;;18.80;63.30;;;;;;4915443;29;20036;-84
2021/07/17 01:53:47;;;;;;;0.00;0.00;;;18.80;63.30;;;;;;4915316;29;20020;-84
2021/07/17 01:56:17;;;;;;;0.38;0.28;;;18.80;63.40;;;;;;4914388;29;20036;-84
2021/07/17 01:58:43;;;;;;;0.03;0.00;;;18.80;63.50;;;;;;4915584;29;20044;-84
2021/07/17 02:01:09;;;;;;;1.08;0.15;;;18.80;63.40;;;;;;4930159;28;20043;-84
2021/07/17 02:03:36;;;;;;;0.00;0.00;;;18.80;63.40;;;;;;4912820;29;20035;-84
2021/07/17 02:06:03;;;;;;;0.25;0.20;;;18.80;63.40;;;;;;4911399;29;20043;-85
2021/07/17 02:08:31;;;;;;;4.57;0.52;;;18.90;63.40;;;;;;4948007;28;20047;-85
2021/07/17 02:10:57;;;;;;;0.30;0.00;;;18.80;63.40;;;;;;4965536;28;20353;-85
2021/07/17 02:13:24;;;;;;;0.20;0.00;;;18.80;63.50;;;;;;4945420;29;20037;-84
2021/07/17 02:15:51;;;;;;;0.20;0.10;;;18.70;63.60;;;;;;4919845;28;20035;-81
2021/07/17 02:18:32;;;;;;;0.15;0.03;;;18.70;63.60;;;;;;4917425;29;20316;-85
2021/07/17 02:21:02;;;;;;;0.65;0.38;;;18.70;63.60;;;;;;4961891;28;20043;-84
2021/07/17 02:23:28;;;;;;;0.50;0.10;;;18.70;63.70;;;;;;4964213;28;20055;-84
2021/07/17 02:25:54;;;;;;;0.10;0.00;;;18.70;63.80;;;;;;4948916;28;20284;-85
2021/07/17 02:28:20;;;;;;;0.43;0.20;;;18.70;63.80;;;;;;4917952;29;20032;-84
2021/07/17 02:30:50;;;;;;;0.22;0.10;;;18.60;63.80;;;;;;4963290;28;20048;-85
2021/07/17 02:33:16;;;;;;;0.38;0.10;;;18.60;63.80;;;;;;4947798;28;20051;-84
2021/07/17 02:35:42;;;;;;;0.57;0.00;;;18.60;63.80;;;;;;4917675;28;20040;-84
2021/07/17 02:38:08;;;;;;;0.43;0.32;;;18.60;63.90;;;;;;4918466;29;20404;-83
2021/07/17 02:40:35;;;;;;;0.40;0.10;;;18.60;63.90;;;;;;4918973;29;20491;-84
2021/07/17 02:43:01;;;;;;;0.60;0.40;;;18.60;63.90;;;;;;4919097;29;20028;-85
2021/07/17 02:45:27;;;;;;;0.20;0.03;;;18.60;64.00;;;;;;4918783;28;20495;-84
2021/07/17 02:47:53;;;;;;;1.20;0.52;;;18.60;64.10;;;;;;4933277;29;20044;-84
2021/07/17 02:50:19;;;;;;;0.57;0.10;;;18.50;64.10;;;;;;4949189;28;20511;-84
2021/07/17 02:52:45;;;;;;;0.10;0.00;;;18.50;64.10;;;;;;4918980;28;20396;-84
2021/07/17 02:55:11;;;;;;;0.10;0.10;;;18.50;64.20;;;;;;4949723;29;20033;-84
2021/07/17 02:57:37;;;;;;;2.05;0.55;;;18.50;64.30;;;;;;4933161;29;20051;-85
2021/07/17 03:00:05;;;;;;;0.95;0.10;;;18.40;64.30;;;;;;4932592;28;20036;-84
2021/07/17 03:02:32;;;;;;;0.10;0.00;;;18.40;64.40;;;;;;4918162;29;20020;-84
2021/07/17 03:04:58;;;;;;;1.17;0.10;;;18.40;64.30;;;;;;4917277;29;20407;-84
2021/07/17 03:07:24;;;;;;;0.30;0.10;;;18.40;64.40;;;;;;4914409;29;20045;-85
2021/07/17 03:09:50;;;;;;;0.17;0.10;;;18.40;64.40;;;;;;4948519;29;20423;-85
2021/07/17 03:12:16;;;;;;;0.35;0.08;;;18.40;64.40;;;;;;4916956;29;20040;-85
2021/07/17 03:14:42;;;;;;;3.53;0.20;;;18.40;64.40;;;;;;4918149;29;20039;-84
2021/07/17 03:17:08;;;;;;;0.28;0.00;;;18.40;64.50;;;;;;4916435;28;20043;-84
2021/07/17 03:19:34;;;;;;;0.00;0.00;;;18.30;64.40;;;;;;4915269;29;20484;-86
2021/07/17 03:22:02;;;;;;;0.00;0.00;;;18.30;64.40;;;;;;4918104;29;20036;-85
2021/07/17 03:24:28;;;;;;;0.63;0.10;;;18.30;64.50;;;;;;4917999;29;20092;-83
2021/07/17 03:26:54;;;;;;;2.30;0.55;;;18.30;64.60;;;;;;4917005;29;20028;-85
2021/07/17 03:29:21;;;;;;;0.00;0.00;;;18.20;64.50;;;;;;4917950;29;20036;-84
2021/07/17 03:31:47;;;;;;;0.10;0.10;;;18.20;64.60;;;;;;4915780;28;20044;-82
2021/07/17 03:34:13;;;;;;;1.05;0.20;;;18.10;64.60;;;;;;4918247;29;20383;-84
2021/07/17 03:36:39;;;;;;;5.70;0.32;;;18.10;64.80;;;;;;4917383;29;20089;-84
2021/07/17 03:39:05;;;;;;;0.10;0.00;;;18.10;64.80;;;;;;4917521;29;20044;-84
2021/07/17 03:41:32;;;;;;;0.00;0.00;;;18.00;64.80;;;;;;4917579;29;20391;-84
2021/07/17 03:43:58;;;;;;;0.10;0.00;;;18.00;64.90;;;;;;4918516;28;20488;-84
2021/07/17 03:46:24;;;;;;;0.30;0.10;;;18.00;64.90;;;;;;4918577;28;20037;-86
2021/07/17 03:48:50;;;;;;;1.08;0.10;;;17.90;64.90;;;;;;4917515;29;20040;-83
2021/07/17 03:51:17;;;;;;;0.40;0.13;;;17.90;65.00;;;;;;4915992;29;20040;-84
2021/07/17 03:53:43;;;;;;;0.10;0.10;;;17.80;65.00;;;;;;4917391;29;20040;-85
2021/07/17 03:56:09;;;;;;;0.52;0.20;;;17.80;65.10;;;;;;4917499;29;20032;-83
2021/07/17 03:58:35;;;;;;;0.77;0.52;;;17.80;65.10;;;;;;4914257;29;20043;-85
2021/07/17 04:01:01;;;;;;;0.45;0.20;;;17.80;65.20;;;;;;4947614;28;20043;-84
2021/07/17 04:03:27;;;;;;;0.00;0.00;;;17.70;65.10;;;;;;4917502;29;20040;-83
2021/07/17 04:05:53;;;;;;;6.80;0.30;;;17.70;65.10;;;;;;4917659;28;20418;-84
2021/07/17 04:08:19;;;;;;;0.05;0.00;;;17.70;65.10;;;;;;4931841;29;20044;-84
2021/07/17 04:10:45;;;;;;;0.80;0.35;;;17.70;65.20;;;;;;4917195;29;20040;-84
2021/07/17 04:13:11;;;;;;;0.15;0.10;;;17.70;65.10;;;;;;4917759;29;20032;-84
2021/07/17 04:15:37;;;;;;;0.75;0.45;;;17.70;65.20;;;;;;4915514;28;20043;-83
2021/07/17 04:18:03;;;;;;;1.55;0.20;;;17.70;65.20;;;;;;4915946;29;20032;-84
2021/07/17 04:20:30;;;;;;;0.00;0.00;;;17.60;65.30;;;;;;4916481;29;20052;-86
2021/07/17 04:22:56;;;;;;;0.30;0.10;;;17.60;65.40;;;;;;4917181;29;20028;-84
2021/07/17 04:25:22;;;;;;;2.75;0.10;;;17.60;65.40;;;;;;4917565;29;20032;-84
2021/07/17 04:27:49;;;;;;;0.75;0.25;;;17.60;65.40;;;;;;4916673;29;20036;-85
2021/07/17 04:30:15;;;;;;;0.77;0.30;;;17.50;65.50;;;;;;4946829;28;20052;-84
2021/07/17 04:32:41;;;;;;;3.00;0.40;;;17.40;65.60;;;;;;4916334;29;20028;-85
2021/07/17 04:35:08;;;;;;;0.75;0.20;;;17.40;65.70;;;;;;4915502;29;20036;-84
2021/07/17 04:37:34;;;;;;;0.20;0.00;;;17.40;65.70;;;;;;4919655;29;20016;-85
2021/07/17 04:40:00;;;;;;;0.30;0.08;;;17.40;65.60;;;;;;4916863;29;20048;-86
2021/07/17 04:42:27;;;;;;;0.40;0.10;;;17.30;65.60;;;;;;4916433;29;20040;-84
2021/07/17 04:44:53;;;;;;;0.77;0.00;;;17.30;65.70;;;;;;4916439;29;20024;-84
2021/07/17 04:47:19;;;;;;;0.40;0.10;;;17.30;65.70;;;;;;4916203;28;20032;-84
2021/07/17 04:49:46;;;;;;;2.10;0.52;;;17.30;65.80;;;;;;4914945;29;20028;-83
2021/07/17 04:52:12;;;;;;;1.55;0.50;;;17.20;65.80;;;;;;4947356;29;20368;-85
2021/07/17 04:54:38;;;;;;;0.05;0.00;;;17.20;65.90;;;;;;4916312;29;20032;-84
2021/07/17 04:57:04;;;;;;;0.32;0.22;;;17.10;65.80;;;;;;4916260;29;20028;-84
2021/07/17 04:59:30;;;;;;;0.20;0.10;;;17.10;65.90;;;;;;4912594;29;20040;-88
2021/07/17 05:01:56;;;;;;;1.58;0.52;;;17.00;66.00;;;;;;4915637;28;20035;-86
2021/07/17 05:04:22;;;;;;;0.13;0.13;;;17.00;66.10;;;;;;4931414;29;20492;-86
2021/07/17 05:06:48;;;;;;;0.70;0.15;;;16.90;66.10;;;;;;4914762;29;20028;-86
2021/07/17 05:09:14;;;;;;;0.15;0.08;;;16.90;66.20;;;;;;4916249;29;20051;-87
2021/07/17 05:11:40;;;;;;;0.30;0.20;;;16.90;66.20;;;;;;4915941;29;20039;-89
2021/07/17 05:14:06;;;;;;;0.10;0.03;;;16.90;66.10;;;;;;4916232;29;20392;-86
2021/07/17 05:16:32;;;;;;;0.28;0.00;;;16.90;66.10;;;;;;4915389;28;20036;-87
2021/07/17 05:18:58;;;;;;;3.45;0.40;;;17.00;66.20;;;;;;4916309;29;20043;-86
2021/07/17 05:21:25;;;;;;;0.68;0.25;;;17.00;66.00;;;;;;4916095;29;20047;-86
2021/07/17 05:23:51;;;;;;;0.63;0.43;;;17.10;65.90;;;;;;4915944;29;20028;-84
2021/07/17 05:26:17;;;;;;;1.63;0.55;;;17.30;65.70;;;;;;4915879;29;20043;-87
2021/07/17 05:28:43;;;;;;;0.30;0.15;;;17.40;65.40;;;;;;4929712;29;20408;-87
2021/07/17 05:31:09;;;;;;;0.80;0.40;;;17.50;65.10;;;;;;4946192;28;20048;-87
2021/07/17 05:33:35;;;;;;;7.88;0.47;;;17.70;65.00;;;;;;4914649;29;20040;-89
2021/07/17 05:36:01;;;;;;;0.13;0.08;;;17.70;64.80;;;;;;4915811;29;20498;-87
2021/07/17 05:38:27;;;;;;;2.42;0.65;;;17.80;64.70;;;;;;4911520;29;20043;-84
2021/07/17 05:40:53;;;;;;;0.00;0.00;;;17.90;64.60;;;;;;4915656;29;20123;-87
2021/07/17 05:43:19;;;;;;;0.88;0.30;;;17.90;64.60;;;;;;4916219;29;20028;-84
2021/07/17 05:45:47;;;;;;;0.00;0.00;;;18.00;64.60;;;;;;4914758;28;20036;-84
2021/07/17 05:48:13;;;;;;;0.03;0.00;;;18.10;64.40;;;;;;4915537;29;20032;-84
2021/07/17 05:50:39;;;;;;;0.17;0.17;;;18.20;64.40;;;;;;4919031;29;20036;-87
2021/07/17 05:53:08;;;;;;;0.52;0.17;;;18.20;64.10;;;;;;4922074;29;20047;-85
2021/07/17 05:55:35;;;;;;;0.05;0.00;;;18.30;64.00;;;;;;4918563;29;20032;-86
2021/07/17 05:58:01;;;;;;;0.43;0.25;;;18.30;64.70;;;;;;4922354;29;20036;-86
2021/07/17 06:00:27;;;;;;;0.20;0.10;;;18.30;64.00;;;;;;4935533;28;20043;-85
2021/07/17 06:02:53;;;;;;;0.35;0.10;;;18.30;64.00;;;;;;4921818;29;20404;-84
2021/07/17 06:05:19;;;;;;;0.00;0.00;;;18.40;64.10;;;;;;4921819;29;20039;-85
2021/07/17 06:07:45;;;;;;;0.95;0.20;;;18.40;63.90;;;;;;4921789;29;20484;-84
2021/07/17 06:10:11;;;;;;;0.03;0.00;;;18.50;63.70;;;;;;4922376;29;20036;-84
2021/07/17 06:12:37;;;;;;;0.73;0.05;;;18.60;63.60;;;;;;4920621;29;20032;-84
2021/07/17 06:15:05;;;;;;;0.20;0.00;;;18.60;63.70;;;;;;4920900;28;20035;-84
2021/07/17 06:17:31;;;;;;;0.30;0.20;;;18.80;63.40;;;;;;4917425;29;20035;-83
2021/07/17 06:19:57;;;;;;;0.22;0.00;;;18.80;63.30;;;;;;4921753;29;20498;-84
2021/07/17 06:22:23;;;;;;;0.15;0.10;;;18.90;63.10;;;;;;4922303;29;20028;-84
2021/07/17 06:24:49;;;;;;;0.20;0.10;;;18.90;63.10;;;;;;4920540;29;20036;-83
2021/07/17 06:27:15;;;;;;;0.00;0.00;;;19.00;63.00;;;;;;4921612;29;20040;-84
2021/07/17 06:29:41;;;;;;;0.38;0.15;;;19.10;62.80;;;;;;4934101;29;20368;-83
2021/07/17 06:32:07;;;;;;;1.45;0.20;;;19.20;62.70;;;;;;4921191;28;20037;-84
2021/07/17 06:34:33;;;;;;;0.03;0.00;;;19.20;62.60;;;;;;4921639;29;20032;-82
2021/07/17 06:37:00;;;;;;;0.47;0.10;;;19.20;62.60;;;;;;4921982;29;20032;-84
2021/07/17 06:39:26;;;;;;;0.10;0.00;;;19.30;62.50;;;;;;4921489;29;20040;-84
2021/07/17 06:41:52;;;;;;;0.32;0.00;;;19.30;62.30;;;;;;4921454;29;20479;-85
2021/07/17 06:44:18;;;;;;;0.38;0.17;;;19.40;62.20;;;;;;4920209;29;20031;-85
2021/07/17 06:46:44;;;;;;;0.32;0.10;;;19.60;62.10;;;;;;4921150;28;20062;-84
2021/07/17 06:49:10;;;;;;;0.45;0.10;;;19.60;61.90;;;;;;4921986;29;20471;-84
2021/07/17 06:51:36;;;;;;;1.85;0.10;;;19.70;61.80;;;;;;4936185;29;20048;-82
2021/07/17 06:54:02;;;;;;;1.92;0.20;;;19.80;61.60;;;;;;4951873;29;20372;-84
2021/07/17 06:56:28;;;;;;;0.20;0.15;;;19.90;61.50;;;;;;4921418;29;20035;-84
2021/07/17 06:58:56;;;;;;;0.00;0.00;;;19.90;61.50;;;;;;4921160;29;20054;-84
2021/07/17 07:01:23;;;;;;;0.55;0.30;;;20.00;61.40;;;;;;4921081;28;20051;-84
2021/07/17 07:03:49;;;;;;;1.38;0.55;;;20.00;61.40;;;;;;4917194;29;20040;-84
2021/07/17 07:06:15;;;;;;;0.52;0.22;;;20.00;61.30;;;;;;4917180;29;20028;-85
2021/07/17 07:08:41;;;;;;;0.98;0.17;;;20.10;61.20;;;;;;4918186;29;20047;-84
2021/07/17 07:11:07;;;;;;;0.00;0.00;;;20.20;61.00;;;;;;4917211;29;20044;-84
2021/07/17 07:13:34;;;;;;;0.28;0.10;;;20.30;60.90;;;;;;4914590;29;20024;-84
2021/07/17 07:16:00;;;;;;;0.63;0.30;;;20.30;60.80;;;;;;4918282;28;20048;-85
2021/07/17 07:18:26;;;;;;;1.05;0.10;;;20.30;60.70;;;;;;4918150;29;20024;-85
2021/07/17 07:20:52;;;;;;;0.10;0.10;;;20.40;60.70;;;;;;4917839;29;20051;-84
2021/07/17 07:23:18;;;;;;;0.00;0.00;;;20.50;60.60;;;;;;4919017;28;20044;-84
2021/07/17 07:25:44;;;;;;;0.00;0.00;;;20.60;60.50;;;;;;4916034;29;20037;-85
2021/07/17 07:28:10;;;;;;;1.25;0.10;;;20.70;60.30;;;;;;4932903;29;20047;-84
2021/07/17 07:30:36;;;;;;;0.65;0.10;;;20.70;60.10;;;;;;4917412;28;20044;-86
2021/07/17 07:33:02;;;;;;;2.92;0.10;;;20.70;60.00;;;;;;4917699;29;20038;-85
2021/07/17 07:35:29;;;;;;;0.35;0.25;;;20.80;60.00;;;;;;4917989;29;20031;-87
2021/07/17 07:37:55;;;;;;;1.27;0.30;;;20.90;59.90;;;;;;4917831;29;20049;-84
2021/07/17 07:40:22;;;;;;;0.20;0.13;;;21.00;59.70;;;;;;4948650;29;20040;-85
2021/07/17 07:42:48;;;;;;;0.20;0.20;;;21.10;59.60;;;;;;4916182;29;20043;-84
2021/07/17 07:45:14;;;;;;;0.30;0.20;;;21.20;59.50;;;;;;4915937;28;20036;-85
2021/07/17 07:47:40;;;;;;;1.23;0.15;;;21.30;59.40;;;;;;4914431;29;20021;-84
2021/07/17 07:50:07;;;;;;;0.00;0.00;;;21.40;59.30;;;;;;4916624;29;20032;-86
2021/07/17 07:52:33;;;;;;;1.38;0.03;;;21.60;59.10;;;;;;4917860;29;20043;-84
2021/07/17 07:55:00;;;;;;;0.90;0.10;;;21.60;59.00;;;;;;4916997;29;20043;-85
2021/07/17 07:57:26;;;;;;;0.35;0.10;;;21.70;58.90;;;;;;4915907;29;20097;-84
2021/07/17 07:59:52;;;;;;;0.32;0.10;;;21.90;58.80;;;;;;4917185;29;20040;-86
2021/07/17 08:02:18;;;;;;;1.88;0.25;;;22.00;58.60;;;;;;4915845;28;20032;-85
2021/07/17 08:04:44;;;;;;;0.10;0.00;;;22.10;58.60;;;;;;4917316;29;20036;-86
2021/07/17 08:07:10;;;;;;;0.10;0.05;;;22.30;58.40;;;;;;4917791;29;20044;-85
2021/07/17 08:09:36;;;;;;;0.00;0.00;;;22.40;58.30;;;;;;4916221;29;20407;-87
2021/07/17 08:12:02;;;;;;;5.32;0.32;;;22.50;58.10;;;;;;4916815;29;20032;-85
2021/07/17 08:14:28;;;;;;;0.60;0.22;;;22.50;58.00;;;;;;4916758;29;20055;-87
2021/07/17 08:16:55;;;;;;;2.05;0.10;;;22.60;58.00;;;;;;4915450;28;20028;-85
2021/07/17 08:19:21;;;;;;;0.00;0.00;;;22.70;58.00;;;;;;4917527;29;20032;-85
2021/07/17 08:21:47;;;;;;;0.93;0.10;;;22.80;57.70;;;;;;4916892;29;20040;-85
2021/07/17 08:24:13;;;;;;;0.25;0.00;;;23.00;57.50;;;;;;4947732;28;20036;-86
2021/07/17 08:26:40;;;;;;;0.13;0.00;;;23.20;57.30;;;;;;4916449;29;20033;-85
2021/07/17 08:29:06;;;;;;;0.20;0.05;;;23.30;57.10;;;;;;4916320;29;20514;-85
2021/07/17 08:31:32;;;;;;;0.20;0.05;;;23.40;56.90;;;;;;4916716;28;20043;-85
2021/07/17 08:33:59;;;;;;;0.90;0.20;;;23.40;56.90;;;;;;4947734;29;20389;-86
2021/07/17 08:36:25;;;;;;;0.35;0.28;;;23.40;56.70;;;;;;4915463;29;20510;-86
2021/07/17 08:38:51;;;;;;;4.57;0.10;;;23.40;56.70;;;;;;4916543;29;20036;-85
2021/07/17 08:41:17;;;;;;;1.60;0.10;;;23.50;56.80;;;;;;4931255;29;20048;-85
2021/07/17 08:43:43;;;;;;;0.10;0.00;;;23.60;56.70;;;;;;4914510;29;20029;-85
2021/07/17 08:46:09;;;;;;;1.02;0.32;;;23.70;56.50;;;;;;4963218;28;20098;-84
2021/07/17 08:48:35;;;;;;;0.17;0.03;;;23.80;56.20;;;;;;4922306;29;20036;-86
2021/07/17 08:51:01;;;;;;;0.22;0.10;;;23.90;56.20;;;;;;4922339;29;20024;-86
2021/07/17 08:53:28;;;;;;;2.83;0.10;;;23.90;56.20;;;;;;4913771;29;20040;-85
2021/07/17 08:55:54;;;;;;;0.80;0.28;;;23.90;56.10;;;;;;4946838;29;20426;-86
2021/07/17 08:58:21;;;;;;;0.25;0.10;;;24.00;56.00;;;;;;4917155;29;20048;-86
2021/07/17 09:00:47;;;;;;;0.17;0.10;;;24.10;56.00;;;;;;4930396;28;20044;-85
2021/07/17 09:03:17;;;;;;;1.00;0.00;;;24.20;55.90;;;;;;4946703;29;20453;-85
2021/07/17 09:05:45;;;;;;;0.10;0.10;;;24.30;55.70;;;;;;4916766;29;20051;-85
2021/07/17 09:08:19;;;;;;;2.63;0.30;;;24.30;56.20;;;;;;4916580;28;20055;-86
2021/07/17 09:10:46;;;;;;;0.00;0.00;;;24.30;55.60;;;;;;4914229;29;20036;-85
2021/07/17 09:13:23;;;;;;;0.75;0.35;;;24.40;55.50;;;;;;4931370;29;20040;-86
2021/07/17 09:15:56;;;;;;;0.38;0.17;;;24.40;55.50;;;;;;4930291;28;20392;-86
2021/07/17 09:18:31;;;;;;;0.30;0.00;;;24.50;55.40;;;;;;4914992;29;20036;-86
2021/07/17 09:21:17;;;;;;;0.10;0.00;;;24.70;55.20;;;;;;4914915;29;20040;-86
2021/07/17 09:23:54;;;;;;;0.00;0.00;;;24.80;55.00;;;;;;4913101;29;20044;-85
2021/07/17 09:26:22;;;;;;;5.07;0.25;;;24.90;54.80;;;;;;4930681;29;20020;-86
2021/07/17 09:28:55;;;;;;;1.27;0.20;;;25.10;54.50;;;;;;4930340;29;20028;-86
2021/07/17 09:31:22;;;;;;;0.32;0.10;;;25.10;54.40;;;;;;4946359;28;20028;-86
2021/07/17 09:33:51;;;;;;;0.57;0.13;;;25.20;54.40;;;;;;4914735;29;20039;-86
2021/07/17 09:36:19;;;;;;;0.10;0.00;;;25.30;54.40;;;;;;4915803;29;20043;-86
2021/07/17 09:38:50;;;;;;;0.98;0.35;;;25.40;54.30;;;;;;4913962;29;20411;-86
2021/07/17 09:41:17;;;;;;;;;;;25.40;54.00;;;;;;4915372;29;20055;-86
2021/07/17 09:43:43;;;;;;;0.10;0.10;;;25.40;53.90;;;;;;4915636;29;19908;-85
2021/07/17 09:46:22;;;;;;;4.55;0.40;;;25.40;53.80;;;;;;4930614;28;20083;-86
2021/07/17 09:48:52;;;;;;;0.60;0.20;;;25.40;53.70;;;;;;4946094;29;20514;-86
2021/07/17 09:51:27;;;;;;;0.32;0.10;;;25.50;53.70;;;;;;4930809;29;20039;-86
2021/07/17 09:53:54;;;;;;;9.07;0.32;;;25.60;53.60;;;;;;4915591;29;20032;-86
2021/07/17 09:56:24;;;;;;;0.98;0.52;;;25.60;53.60;;;;;;4916439;28;20062;-86
2021/07/17 09:58:54;;;;;;;0.22;0.08;;;25.50;53.60;;;;;;4914364;29;20036;-85
2021/07/17 10:01:31;;;;;;;14.00;0.30;;;25.50;53.60;;;;;;4961361;28;20409;-87
2021/07/17 10:03:58;;;;;;;0.22;0.08;;;25.60;53.60;;;;;;4914569;29;20040;-86
2021/07/17 10:06:41;;;;;;;7.70;0.32;;;25.70;53.50;;;;;;4911394;29;20024;-86
2021/07/17 10:09:16;;;;;;;0.52;0.10;;;25.70;53.20;;;;;;4930215;29;20063;-87
2021/07/17 10:11:54;;;;;;;3.88;0.28;;;25.70;53.00;;;;;;4915314;29;20032;-86
2021/07/17 10:14:25;;;;;;;0.35;0.10;;;25.70;53.10;;;;;;4915827;29;20033;-86
2021/07/17 10:16:54;;;;;;;0.88;0.38;;;25.70;53.10;;;;;;4915283;28;20055;-84
2021/07/17 10:19:25;;;;;;;0.60;0.35;;;25.80;53.10;;;;;;4916492;29;20047;-85
2021/07/17 10:21:52;;;;;;;0.50;0.10;;;25.90;52.90;;;;;;4930383;29;20051;-86
2021/07/17 10:24:18;;;;;;;1.95;0.28;;;26.00;52.70;;;;;;4911351;29;20041;-86
2021/07/17 10:26:45;;;;;;;0.57;0.08;;;26.10;52.70;;;;;;4937277;29;20028;-86
2021/07/17 10:29:12;;;;;;;6.32;0.10;;;26.20;52.60;;;;;;4914275;29;20032;-86
2021/07/17 10:31:38;;;;;;;1.38;0.28;;;26.30;52.30;;;;;;4930381;28;20047;-86
2021/07/17 10:34:05;;;;;;;0.30;0.20;;;26.20;52.20;;;;;;4946571;29;20024;-86
2021/07/17 10:36:32;;;;;;;0.10;0.00;;;26.10;52.20;;;;;;4915351;29;20059;-86
2021/07/17 10:39:08;;;;;;;0.20;0.10;;;26.10;52.30;;;;;;4933549;29;20032;-86
2021/07/17 10:41:35;;;;;;;3.17;0.30;;;26.10;52.20;;;;;;4914880;29;20039;-87
2021/07/17 10:44:02;;;;;;;0.20;0.00;;;26.10;52.20;;;;;;4918004;29;20028;-85
2021/07/17 10:46:36;;;;;;;0.10;0.10;;;26.00;52.10;;;;;;4918661;28;20032;-86
2021/07/17 10:49:04;;;;;;;0.13;0.00;;;26.20;52.10;;;;;;4949345;29;20028;-87
2021/07/17 10:51:35;;;;;;;1.63;0.10;;;26.20;52.10;;;;;;4918815;29;20047;-86
2021/07/17 10:54:03;;;;;;;0.25;0.17;;;26.20;52.00;;;;;;4919676;28;20063;-87
2021/07/17 10:56:29;;;;;;;0.60;0.20;;;26.10;52.10;;;;;;4918844;29;20036;-87
2021/07/17 10:58:55;;;;;;;2.85;0.47;;;26.00;52.20;;;;;;4918438;29;20491;-87
2021/07/17 11:01:21;;;;;;;0.77;0.30;;;26.00;52.00;;;;;;4949121;28;20076;-86
2021/07/17 11:03:48;;;;;;;2.20;0.22;;;26.10;52.00;;;;;;4918386;29;20487;-86
2021/07/17 11:06:25;;;;;;;1.45;0.40;;;26.20;51.70;;;;;;4916815;29;20035;-88
2021/07/17 11:08:51;;;;;;;0.35;0.05;;;26.40;51.70;;;;;;4916964;29;20113;-85
2021/07/17 11:11:31;;;;;;;8.38;0.45;;;26.50;51.60;;;;;;4948942;29;20047;-86
2021/07/17 11:14:18;;;;;;;0.63;0.13;;;26.60;51.40;;;;;;4918976;29;20495;-87
2021/07/17 11:16:48;;;;;;;1.05;0.63;;;26.60;51.20;;;;;;4917837;28;20039;-85
2021/07/17 11:19:17;;;;;;;0.43;0.15;;;26.60;51.30;;;;;;4949043;29;20047;-86
2021/07/17 11:21:44;;;;;;;2.63;0.63;;;26.60;51.20;;;;;;4918843;28;20048;-86
2021/07/17 11:24:10;;;;;;;0.57;0.32;;;26.70;51.20;;;;;;4917055;29;20036;-84
2021/07/17 11:26:36;;;;;;;0.00;0.00;;;26.70;51.10;;;;;;4918150;29;20047;-86
2021/07/17 11:29:10;;;;;;;1.75;0.25;;;26.80;51.00;;;;;;4948503;29;20047;-87
2021/07/17 11:31:39;;;;;;;0.10;0.00;;;26.80;50.80;;;;;;4914325;28;20039;-88
2021/07/17 11:37:02;;;;;;;2.22;0.57;;;26.70;51.00;;;;;;4918377;29;20423;-87
2021/07/17 11:39:29;;;;;;;1.75;0.60;;;26.80;51.00;;;;;;4947866;29;20048;-86
2021/07/17 11:41:56;;;;;;;10.02;0.65;;;26.80;50.90;;;;;;4917671;29;20047;-85
2021/07/17 11:44:29;;;;;;;1.27;0.20;;;27.00;50.80;;;;;;4917907;29;20031;-86
2021/07/17 11:47:06;;;;;;;0.57;0.20;;;27.00;50.80;;;;;;4900968;29;20036;-85
2021/07/17 11:49:34;;;;;;;0.20;0.00;;;27.00;50.50;;;;;;4914903;29;20036;-86
2021/07/17 11:52:03;;;;;;;0.10;0.08;;;27.00;50.60;;;;;;4947475;29;20032;-87
2021/07/17 11:54:40;;;;;;;0.85;0.10;;;27.00;50.40;;;;;;4917629;29;20025;-86
2021/07/17 11:57:11;;;;;;;0.47;0.20;;;27.10;50.40;;;;;;4933488;29;20032;-85
2021/07/17 11:59:39;;;;;;;0.85;0.20;;;27.10;50.30;;;;;;4914674;29;20052;-85
2021/07/17 12:02:09;;;;;;;0.20;0.20;;;27.10;50.30;;;;;;4917089;28;20051;-87
2021/07/17 12:04:37;;;;;;;2.17;0.30;;;27.10;50.30;;;;;;4917655;29;20031;-85
2021/07/17 12:07:11;;;;;;;1.10;0.15;;;27.10;50.40;;;;;;4948141;29;20303;-86
2021/07/17 12:09:42;;;;;;;0.10;0.05;;;27.10;50.40;;;;;;4916183;29;20033;-85
2021/07/17 12:12:16;;;;;;;1.58;0.68;;;27.20;50.40;;;;;;4917307;29;20041;-86
2021/07/17 12:14:44;;;;;;;1.65;0.52;;;27.20;50.20;;;;;;4917284;29;20028;-86
2021/07/17 12:17:10;;;;;;;0.57;0.40;;;27.10;50.30;;;;;;4916482;28;20122;-87
2021/07/17 12:19:36;;;;;;;0.85;0.30;;;26.90;50.30;;;;;;4914013;29;20392;-86
2021/07/17 12:22:03;;;;;;;0.30;0.10;;;26.80;50.40;;;;;;4917532;29;20040;-86
2021/07/17 12:24:29;;;;;;;0.40;0.20;;;26.90;50.40;;;;;;4912885;29;20044;-85
2021/07/17 12:27:04;;;;;;;0.43;0.28;;;27.00;50.40;;;;;;4909769;29;20483;-85
2021/07/17 12:29:30;;;;;;;1.15;0.32;;;27.00;50.30;;;;;;4917061;29;20040;-85
2021/07/17 12:32:02;;;;;;;0.28;0.10;;;27.10;50.30;;;;;;4916381;28;20047;-85
2021/07/17 12:34:28;;;;;;;1.33;0.40;;;27.10;50.20;;;;;;4913896;29;20024;-87
2021/07/17 12:36:54;;;;;;;0.75;0.28;;;27.00;50.10;;;;;;4917197;29;20032;-84
2021/07/17 12:39:21;;;;;;;1.40;0.40;;;27.10;50.20;;;;;;4916841;29;20502;-85
2021/07/17 12:41:47;;;;;;;0.60;0.30;;;27.30;50.10;;;;;;4918199;29;20063;-85
2021/07/17 12:44:16;;;;;;;0.60;0.05;;;27.40;50.00;;;;;;4916492;29;20035;-85
2021/07/17 12:46:44;;;;;;;0.25;0.13;;;27.30;49.90;;;;;;4915886;28;20043;-84
2021/07/17 12:49:17;;;;;;;0.50;0.10;;;27.30;50.00;;;;;;4947292;29;20032;-86
2021/07/17 12:51:44;;;;;;;5.97;0.35;;;27.40;50.00;;;;;;4915240;29;20036;-85